Time;durP1;ratioP1;P1;durP2;ratioP2;P2;SDS_P1;SDS_P2;PMS_P1;PMS_P2;Temp;Humidity;BMP_temperature;BMP_pressure;BME280_temperature;BME280_humidity;BME280_pressure;Samples;Min_cycle;Max_cycle;Signal;HPM_P1;HPM_P2
2022/11/01 00:00:49;;;;;;;8.85;7.18;;;9.40;99.90;;;;;;4963849;28;20027;-83
2022/11/01 00:03:27;;;;;;;9.75;7.85;;;9.40;99.90;;;;;;4965614;28;20066;-83
2022/11/01 00:06:19;;;;;;;10.13;8.07;;;9.50;99.90;;;;;;4987071;28;20041;-82
2022/11/01 00:08:45;;;;;;;9.32;7.38;;;9.30;99.90;;;;;;4971219;28;20062;-83
2022/11/01 00:11:17;;;;;;;10.38;7.97;;;9.20;99.90;;;;;;4978397;28;20050;-83
2022/11/01 00:13:50;;;;;;;15.00;8.05;;;9.20;99.90;;;;;;4981083;28;20030;-83
2022/11/01 00:16:21;;;;;;;26.40;7.80;;;9.10;99.90;;;;;;4979677;28;20418;-83
2022/11/01 00:18:58;;;;;;;8.52;7.00;;;9.10;99.90;;;;;;4978698;28;20038;-83
2022/11/01 00:21:33;;;;;;;8.80;7.30;;;9.10;99.90;;;;;;4977780;28;20043;-82
2022/11/01 00:24:02;;;;;;;10.20;7.45;;;9.20;99.90;;;;;;4972820;28;20114;-83
2022/11/01 00:26:31;;;;;;;;;;;9.20;99.90;;;;;;4973933;28;20057;-83
2022/11/01 00:28:58;;;;;;;7.32;6.57;;;9.20;99.90;;;;;;4980047;28;19921;-83
2022/11/01 00:31:24;;;;;;;7.05;6.18;;;9.10;99.90;;;;;;4985728;28;20039;-83
2022/11/01 00:34:02;;;;;;;7.97;6.20;;;9.00;99.90;;;;;;4977892;28;20027;-84
2022/11/01 00:36:28;;;;;;;7.93;6.67;;;9.00;99.90;;;;;;4974566;28;20031;-83
2022/11/01 00:38:57;;;;;;;7.90;7.05;;;9.00;99.90;;;;;;4981734;28;20053;-83
2022/11/01 00:42:04;;;;;;;8.15;7.35;;;9.10;99.90;;;;;;4983632;28;20031;-84
2022/11/01 00:44:31;;;;;;;7.95;7.15;;;9.10;99.90;;;;;;4972160;28;20038;-83
2022/11/01 00:47:00;;;;;;;8.73;7.30;;;9.10;99.90;;;;;;4982575;28;20298;-83
2022/11/01 00:49:32;;;;;;;27.42;8.30;;;9.10;99.90;;;;;;4977812;28;20084;-83
2022/11/01 00:52:04;;;;;;;9.65;7.32;;;8.80;99.90;;;;;;4982723;28;20062;-84
2022/11/01 00:54:31;;;;;;;118.18;12.35;;;8.70;99.90;;;;;;4989506;28;20041;-83
2022/11/01 00:57:02;;;;;;;37.80;7.63;;;8.60;99.90;;;;;;4991372;28;20058;-84
2022/11/01 00:59:28;;;;;;;63.33;9.90;;;8.30;99.90;;;;;;4977035;28;20030;-84
2022/11/01 01:01:54;;;;;;;16.25;9.45;;;8.10;99.90;;;;;;4977248;28;20051;-84
2022/11/01 01:04:20;;;;;;;9.55;7.70;;;8.30;99.90;;;;;;4977281;28;20042;-84
2022/11/01 01:06:46;;;;;;;8.65;7.65;;;8.40;99.90;;;;;;4980127;28;20031;-82
2022/11/01 01:09:12;;;;;;;9.65;8.20;;;8.50;99.90;;;;;;4987704;28;20030;-83
2022/11/01 01:11:38;;;;;;;8.13;6.90;;;8.60;99.90;;;;;;4993149;28;20515;-85
2022/11/01 01:14:08;;;;;;;14.02;10.57;;;8.60;99.90;;;;;;4976263;28;20106;-83
2022/11/01 01:16:34;;;;;;;9.10;7.68;;;8.70;99.90;;;;;;4979533;28;20546;-85
2022/11/01 01:19:00;;;;;;;7.13;6.53;;;8.70;99.90;;;;;;4979891;28;20086;-84
2022/11/01 01:21:26;;;;;;;8.52;7.25;;;8.60;99.90;;;;;;4976704;28;20027;-83
2022/11/01 01:23:53;;;;;;;9.10;7.45;;;8.60;99.90;;;;;;4997581;28;20106;-84
2022/11/01 01:26:19;;;;;;;9.10;7.20;;;8.50;99.90;;;;;;4974835;28;20034;-84
2022/11/01 01:28:45;;;;;;;10.10;7.05;;;8.50;99.90;;;;;;4984449;28;20362;-84
2022/11/01 01:31:15;;;;;;;9.68;7.03;;;8.50;99.90;;;;;;4978353;28;20969;-86
2022/11/01 01:33:44;;;;;;;8.90;7.72;;;8.30;99.90;;;;;;4978335;28;20035;-84
2022/11/01 01:36:25;;;;;;;7.75;6.70;;;8.40;99.90;;;;;;4974670;28;20023;-84
2022/11/01 01:38:52;;;;;;;8.93;6.97;;;8.40;99.90;;;;;;4981903;28;20498;-84
2022/11/01 01:44:42;;;;;;;11.98;7.22;;;8.50;99.90;;;;;;4977733;28;20754;-84
2022/11/01 01:47:11;;;;;;;10.10;6.82;;;8.40;99.90;;;;;;4974145;28;20031;-82
2022/11/01 01:49:40;;;;;;;8.05;6.25;;;8.40;99.90;;;;;;4974858;28;20035;-84
2022/11/01 01:52:09;;;;;;;9.32;6.80;;;8.30;99.90;;;;;;4976892;28;20023;-83
2022/11/01 01:54:42;;;;;;;7.15;6.45;;;8.30;99.90;;;;;;4977958;28;20037;-84
2022/11/01 01:57:08;;;;;;;10.88;6.85;;;8.30;99.90;;;;;;4981737;28;20034;-83
2022/11/01 01:59:36;;;;;;;10.43;7.32;;;8.30;99.90;;;;;;4977221;28;20391;-83
2022/11/01 02:02:02;;;;;;;8.80;6.68;;;8.30;99.90;;;;;;4981868;28;20506;-87
2022/11/01 02:04:51;;;;;;;8.98;6.38;;;8.40;99.90;;;;;;4980271;28;20038;-87
2022/11/01 02:07:18;;;;;;;7.13;6.25;;;8.40;99.90;;;;;;4986402;28;20069;-87
2022/11/01 02:09:52;;;;;;;10.70;7.75;;;8.50;99.90;;;;;;4974417;28;20391;-88
2022/11/01 02:12:25;;;;;;;10.27;7.55;;;8.50;99.90;;;;;;4974116;28;20031;-87
2022/11/01 02:14:51;;;;;;;8.52;7.60;;;8.50;99.90;;;;;;4978665;28;20066;-87
2022/11/01 02:17:42;;;;;;;7.85;6.93;;;8.50;99.90;;;;;;4983105;28;20027;-87
2022/11/01 02:20:49;;;;;;;10.23;6.70;;;8.50;99.90;;;;;;4977173;28;20042;-87
2022/11/01 02:23:34;;;;;;;8.63;6.70;;;8.50;99.90;;;;;;4974080;28;20155;-87
2022/11/01 02:26:28;;;;;;;8.68;6.50;;;8.50;99.90;;;;;;4977541;28;20034;-88
2022/11/01 02:29:09;;;;;;;7.97;6.40;;;8.50;99.90;;;;;;4978494;28;20031;-86
2022/11/01 02:32:01;;;;;;;10.85;6.80;;;8.40;99.90;;;;;;4974339;28;20057;-88
2022/11/01 02:34:40;;;;;;;9.80;6.53;;;8.20;99.90;;;;;;4975154;28;20055;-87
2022/11/01 02:37:20;;;;;;;15.35;8.50;;;8.20;99.90;;;;;;4983962;28;20535;-88
2022/11/01 02:40:00;;;;;;;17.42;10.00;;;8.30;99.90;;;;;;4982877;28;20034;-87
2022/11/01 02:42:36;;;;;;;7.45;6.50;;;8.40;99.90;;;;;;4980181;28;20058;-87
2022/11/01 02:45:07;;;;;;;11.90;6.40;;;8.40;99.90;;;;;;4972839;28;20086;-87
2022/11/01 02:47:42;;;;;;;10.30;6.40;;;8.20;99.90;;;;;;4984962;28;20023;-87
2022/11/01 02:50:13;;;;;;;12.20;6.88;;;8.20;99.90;;;;;;4981474;28;20035;-87
2022/11/01 02:52:43;;;;;;;9.75;6.47;;;8.30;99.90;;;;;;4976358;28;20030;-87
2022/11/01 02:55:29;;;;;;;7.47;5.00;;;8.20;99.90;;;;;;4981393;28;20535;-86
2022/11/01 02:58:22;;;;;;;5.82;4.47;;;7.80;99.90;;;;;;4982232;28;20030;-87
2022/11/01 03:00:57;;;;;;;7.88;6.15;;;7.60;99.90;;;;;;4976622;28;20041;-87
2022/11/01 03:03:33;;;;;;;7.03;5.70;;;7.60;99.90;;;;;;4973224;28;20043;-86
2022/11/01 03:06:32;;;;;;;9.68;5.88;;;7.60;99.90;;;;;;4984198;28;20435;-86
2022/11/01 03:09:05;;;;;;;7.30;6.00;;;7.70;99.90;;;;;;4976161;28;20046;-86
2022/11/01 03:15:30;;;;;;;9.70;5.60;;;7.90;99.90;;;;;;4937913;29;20042;-87
2022/11/01 03:18:09;;;;;;;9.50;6.60;;;8.00;99.90;;;;;;4948809;29;20031;-87
2022/11/01 03:20:49;;;;;;;10.27;6.32;;;7.90;99.90;;;;;;4964398;28;20503;-87
2022/11/01 03:23:26;;;;;;;8.27;6.80;;;7.80;99.90;;;;;;4981106;28;20067;-87
2022/11/01 03:25:56;;;;;;;8.55;6.35;;;7.90;99.90;;;;;;4975574;28;20026;-87
2022/11/01 03:28:32;;;;;;;9.82;5.90;;;8.00;99.90;;;;;;4979194;28;20034;-86
2022/11/01 03:31:04;;;;;;;10.38;6.43;;;8.00;99.90;;;;;;4970156;28;20080;-87
2022/11/01 03:33:36;;;;;;;8.25;6.15;;;8.10;99.90;;;;;;4989196;28;20027;-87
2022/11/01 03:36:06;;;;;;;7.90;6.10;;;8.10;99.90;;;;;;4993337;28;20034;-87
2022/11/01 03:38:38;;;;;;;7.55;5.93;;;8.10;99.90;;;;;;4978825;28;20041;-87
2022/11/01 03:41:10;;;;;;;8.45;6.07;;;8.10;99.90;;;;;;4978513;28;20046;-87
2022/11/01 03:43:37;;;;;;;7.32;5.80;;;8.10;99.90;;;;;;4978980;28;20062;-88
2022/11/01 03:46:04;;;;;;;10.27;5.82;;;8.10;99.90;;;;;;4999346;28;20030;-88
2022/11/01 03:48:30;;;;;;;8.15;5.72;;;8.00;99.90;;;;;;5000434;28;20084;-87
2022/11/01 03:50:56;;;;;;;6.65;5.93;;;7.90;99.90;;;;;;4978364;28;20053;-87
2022/11/01 03:53:22;;;;;;;6.30;5.22;;;7.80;99.90;;;;;;4987711;28;20026;-86
2022/11/01 03:55:52;;;;;;;7.97;5.20;;;7.50;99.90;;;;;;4985050;28;20427;-86
2022/11/01 03:58:18;;;;;;;7.93;5.97;;;7.30;99.90;;;;;;4983079;28;20114;-86
2022/11/01 04:00:45;;;;;;;7.18;5.05;;;7.30;99.90;;;;;;4995485;28;20034;-86
2022/11/01 04:03:15;;;;;;;8.77;5.53;;;7.30;99.90;;;;;;4983664;28;20057;-86
2022/11/01 04:06:01;;;;;;;7.88;5.47;;;7.30;99.90;;;;;;4983631;28;20037;-86
2022/11/01 04:08:32;;;;;;;7.63;5.50;;;7.40;99.90;;;;;;4983654;28;20050;-87
2022/11/01 04:10:59;;;;;;;10.23;6.20;;;7.50;99.90;;;;;;4979572;28;20074;-87
2022/11/01 04:13:27;;;;;;;7.15;5.68;;;7.60;99.90;;;;;;4981510;28;20035;-87
2022/11/01 04:21:31;;;;;;;9.93;5.45;;;7.80;99.90;;;;;;4979896;28;20069;-84
2022/11/01 04:23:57;;;;;;;9.02;6.00;;;7.80;99.90;;;;;;4986049;28;20069;-86
2022/11/01 04:26:26;;;;;;;7.90;4.70;;;7.80;99.90;;;;;;4980418;28;20030;-85
2022/11/01 04:29:18;;;;;;;9.60;5.35;;;7.70;99.90;;;;;;4998578;28;20041;-87
2022/11/01 04:31:44;;;;;;;8.68;5.13;;;7.60;99.90;;;;;;4951384;28;20047;-87
2022/11/01 04:34:11;;;;;;;9.65;5.30;;;7.60;99.90;;;;;;4996088;28;20023;-87
2022/11/01 04:36:37;;;;;;;5.45;4.60;;;7.50;99.90;;;;;;4996781;28;20085;-87
2022/11/01 04:39:06;;;;;;;5.75;4.88;;;7.30;99.90;;;;;;4986886;28;20023;-87
2022/11/01 04:41:37;;;;;;;8.95;5.53;;;7.30;99.90;;;;;;4992632;28;20526;-87
2022/11/01 04:44:04;;;;;;;8.02;5.90;;;7.30;99.90;;;;;;4983538;28;20094;-87
2022/11/01 04:46:33;;;;;;;6.45;4.95;;;7.40;99.90;;;;;;4982379;28;20058;-87
2022/11/01 04:49:14;;;;;;;;;;;;;;;;;;;;;
2022/11/01 04:51:54;;;;;;;8.15;5.45;;;7.70;99.90;;;;;;4981328;28;20117;-87
2022/11/01 04:54:32;;;;;;;10.00;5.45;;;7.80;99.90;;;;;;4978477;28;20053;-87
2022/11/01 04:56:58;;;;;;;10.48;4.95;;;7.90;99.90;;;;;;4983858;28;20026;-86
2022/11/01 04:59:47;;;;;;;7.68;4.97;;;7.90;99.90;;;;;;4977915;28;20069;-87
2022/11/01 05:02:13;;;;;;;6.18;4.93;;;8.00;99.90;;;;;;4974497;28;20069;-86
2022/11/01 05:04:39;;;;;;;11.38;4.97;;;8.00;99.90;;;;;;4985385;28;20045;-86
2022/11/01 05:07:13;;;;;;;6.57;4.88;;;8.00;99.90;;;;;;4999595;28;20111;-86
2022/11/01 05:09:40;;;;;;;6.53;4.65;;;8.00;99.90;;;;;;4983374;28;20039;-86
2022/11/01 05:12:06;;;;;;;6.63;5.45;;;8.10;99.90;;;;;;4981566;28;20026;-87
2022/11/01 05:14:33;;;;;;;6.95;5.05;;;8.10;99.90;;;;;;4977356;28;20035;-87
2022/11/01 05:17:02;;;;;;;9.23;4.45;;;8.10;99.90;;;;;;4983458;28;20435;-87
2022/11/01 05:19:28;;;;;;;6.82;4.68;;;8.10;99.90;;;;;;4981633;28;20054;-87
2022/11/01 05:21:58;;;;;;;7.72;4.82;;;8.10;99.90;;;;;;4979461;28;20027;-85
2022/11/01 05:24:24;;;;;;;7.70;4.47;;;8.20;99.90;;;;;;4981152;28;20035;-86
2022/11/01 05:26:56;;;;;;;7.80;4.20;;;8.20;99.90;;;;;;4984948;28;20041;-87
2022/11/01 05:29:22;;;;;;;9.00;5.30;;;8.20;99.90;;;;;;4984339;28;20034;-86
2022/11/01 05:31:49;;;;;;;7.90;4.90;;;8.20;99.90;;;;;;4987127;28;20057;-85
2022/11/01 05:34:20;;;;;;;7.50;5.18;;;8.30;99.90;;;;;;4983448;28;20093;-87
2022/11/01 05:37:15;;;;;;;10.45;4.95;;;8.30;99.90;;;;;;4982546;28;20051;-88
2022/11/01 05:39:43;;;;;;;7.53;5.63;;;8.40;99.90;;;;;;4977292;28;20038;-87
2022/11/01 05:42:09;;;;;;;7.80;4.80;;;8.30;99.90;;;;;;4983676;28;20535;-88
2022/11/01 05:44:35;;;;;;;7.60;4.60;;;8.30;99.90;;;;;;4966314;28;20054;-86
2022/11/01 05:47:07;;;;;;;9.07;5.05;;;8.20;99.90;;;;;;4983552;28;20597;-87
2022/11/01 05:49:33;;;;;;;6.63;4.72;;;8.30;99.90;;;;;;4984677;28;20080;-87
2022/11/01 05:51:59;;;;;;;10.50;5.28;;;8.30;99.90;;;;;;4979251;28;20534;-87
2022/11/01 05:54:24;;;;;;;9.00;5.10;;;8.30;99.90;;;;;;4981549;28;20034;-87
2022/11/01 05:56:50;;;;;;;8.68;4.93;;;8.40;99.90;;;;;;4980085;28;20054;-87
2022/11/01 05:59:16;;;;;;;7.78;5.40;;;8.40;99.90;;;;;;4982220;28;20057;-87
2022/11/01 06:01:42;;;;;;;7.78;5.07;;;8.40;99.90;;;;;;4982724;28;20427;-88
2022/11/01 06:04:08;;;;;;;6.80;5.20;;;8.50;99.90;;;;;;4980731;28;20031;-86
2022/11/01 06:06:34;;;;;;;6.03;4.50;;;8.40;99.90;;;;;;4980229;28;20031;-86
2022/11/01 06:09:00;;;;;;;6.95;4.47;;;8.40;99.90;;;;;;4987534;28;20087;-87
2022/11/01 06:11:26;;;;;;;8.02;5.07;;;8.50;99.90;;;;;;4982412;28;20054;-86
2022/11/01 06:13:56;;;;;;;10.43;5.72;;;8.50;99.90;;;;;;4984210;28;20030;-86
2022/11/01 06:16:23;;;;;;;9.65;6.10;;;8.60;99.90;;;;;;4984352;28;20114;-87
2022/11/01 06:18:52;;;;;;;9.32;5.97;;;8.70;99.90;;;;;;4984927;28;20038;-86
2022/11/01 06:21:21;;;;;;;11.07;6.97;;;8.70;99.90;;;;;;4983438;28;20472;-87
2022/11/01 06:23:51;;;;;;;8.82;5.38;;;8.80;99.90;;;;;;4971478;28;20038;-88
2022/11/01 06:26:20;;;;;;;10.73;5.53;;;8.80;99.90;;;;;;4985995;28;20498;-87
2022/11/01 06:28:46;;;;;;;12.48;5.70;;;8.80;99.90;;;;;;4986102;28;20058;-87
2022/11/01 06:31:15;;;;;;;13.32;5.68;;;8.80;99.90;;;;;;4983373;28;20043;-87
2022/11/01 06:34:08;;;;;;;7.70;5.05;;;8.70;99.90;;;;;;4977537;28;20023;-87
2022/11/01 06:36:37;;;;;;;8.73;5.05;;;8.60;99.90;;;;;;4980066;28;20105;-86
2022/11/01 06:39:03;;;;;;;;;;;8.60;99.90;;;;;;4985083;28;20034;-86
2022/11/01 06:41:28;;;;;;;8.43;5.00;;;8.50;99.90;;;;;;4984555;28;19968;-86
2022/11/01 06:43:54;;;;;;;8.60;5.28;;;8.60;99.90;;;;;;4972378;28;20035;-86
2022/11/01 06:46:20;;;;;;;6.70;5.40;;;8.60;99.90;;;;;;4975164;28;20027;-86
2022/11/01 06:48:52;;;;;;;10.82;5.10;;;8.70;99.90;;;;;;4980204;28;20039;-87
2022/11/01 06:51:24;;;;;;;10.25;5.18;;;8.70;99.90;;;;;;4973974;28;20035;-88
2022/11/01 06:53:49;;;;;;;10.07;5.57;;;8.70;99.90;;;;;;4975568;28;20039;-86
2022/11/01 06:56:15;;;;;;;11.88;5.78;;;8.80;99.90;;;;;;4976937;28;20031;-88
2022/11/01 06:59:02;;;;;;;8.15;5.00;;;8.80;99.90;;;;;;4977753;28;20087;-88
2022/11/01 07:01:28;;;;;;;6.75;4.90;;;8.80;99.90;;;;;;4978098;28;20050;-88
2022/11/01 07:03:54;;;;;;;8.63;4.97;;;8.90;99.90;;;;;;4977350;28;20102;-87
2022/11/01 07:06:31;;;;;;;8.05;5.57;;;8.80;99.90;;;;;;4977585;28;20035;-86
2022/11/01 07:09:00;;;;;;;9.43;6.25;;;8.90;99.90;;;;;;4983445;28;20058;-88
2022/11/01 07:11:27;;;;;;;8.45;5.72;;;8.90;99.90;;;;;;4976806;28;20122;-88
2022/11/01 07:13:52;;;;;;;9.85;5.35;;;8.90;99.90;;;;;;4990472;28;20035;-87
2022/11/01 07:16:21;;;;;;;8.68;5.63;;;9.00;99.90;;;;;;4973468;28;20415;-85
2022/11/01 07:19:04;;;;;;;7.18;5.70;;;9.00;99.90;;;;;;4977444;28;20035;-88
2022/11/01 07:21:30;;;;;;;10.32;7.05;;;9.00;99.90;;;;;;4984683;28;20038;-87
2022/11/01 07:23:55;;;;;;;9.00;6.22;;;9.10;99.90;;;;;;4992445;28;20042;-88
2022/11/01 07:26:45;;;;;;;9.00;5.65;;;9.20;99.90;;;;;;4982416;28;20041;-89
2022/11/01 07:29:16;;;;;;;8.98;6.10;;;9.30;99.90;;;;;;4972313;28;20046;-88
2022/11/01 07:32:41;;;;;;;12.15;6.55;;;9.40;99.90;;;;;;4973104;28;20047;-88
2022/11/01 07:35:07;;;;;;;10.18;6.80;;;9.50;99.90;;;;;;4964236;28;20411;-88
2022/11/01 07:37:35;;;;;;;12.68;7.93;;;9.70;99.90;;;;;;4983555;28;20027;-88
2022/11/01 07:40:04;;;;;;;13.35;7.50;;;9.80;99.90;;;;;;4994510;28;20034;-87
2022/11/01 07:42:33;;;;;;;12.95;7.40;;;9.90;99.90;;;;;;4974218;28;20050;-87
2022/11/01 07:45:09;;;;;;;13.00;7.28;;;9.90;99.90;;;;;;4972264;28;20105;-87
2022/11/01 07:47:40;;;;;;;13.68;8.00;;;10.00;99.90;;;;;;4981574;28;20039;-88
2022/11/01 07:50:06;;;;;;;16.48;8.85;;;10.10;99.90;;;;;;4983088;28;20037;-88
2022/11/01 07:52:32;;;;;;;13.75;7.78;;;10.20;99.90;;;;;;4982930;28;20086;-88
2022/11/01 07:54:58;;;;;;;12.63;7.03;;;10.30;99.90;;;;;;4981318;28;20046;-88
2022/11/01 07:57:37;;;;;;;12.40;7.13;;;10.30;99.90;;;;;;4983046;28;20022;-89
2022/11/01 08:00:04;;;;;;;11.63;7.57;;;10.40;99.90;;;;;;4979182;28;20062;-89
2022/11/01 08:02:32;;;;;;;12.73;7.72;;;10.40;99.90;;;;;;4979345;28;20046;-89
2022/11/01 08:04:58;;;;;;;11.32;8.52;;;10.50;99.90;;;;;;4977606;28;20037;-87
2022/11/01 08:07:23;;;;;;;12.90;8.60;;;10.50;99.90;;;;;;4982233;28;20066;-90
2022/11/01 08:09:49;;;;;;;15.07;8.20;;;10.60;99.90;;;;;;4986096;28;20042;-89
2022/11/01 08:12:14;;;;;;;12.63;8.10;;;10.70;99.90;;;;;;4983965;28;20520;-89
2022/11/01 08:14:40;;;;;;;13.85;8.32;;;10.80;99.90;;;;;;4998495;28;20027;-88
2022/11/01 08:17:09;;;;;;;13.50;8.77;;;10.90;99.90;;;;;;4983024;28;20026;-88
2022/11/01 08:19:35;;;;;;;15.25;8.77;;;11.00;99.90;;;;;;4985445;28;20027;-88
2022/11/01 08:22:02;;;;;;;14.38;8.68;;;11.10;99.90;;;;;;4985800;28;20085;-88
2022/11/01 08:24:30;;;;;;;15.40;8.32;;;11.30;99.90;;;;;;4998516;28;20023;-88
2022/11/01 08:29:42;;;;;;;17.50;9.23;;;11.40;99.90;;;;;;4947928;28;20446;-88
2022/11/01 08:32:08;;;;;;;14.27;8.93;;;11.50;99.90;;;;;;4978310;28;20041;-88
2022/11/01 08:34:34;;;;;;;17.23;9.07;;;11.60;99.90;;;;;;4985316;28;20121;-91
2022/11/01 08:36:59;;;;;;;17.08;9.40;;;11.70;99.90;;;;;;4980538;28;20496;-90
2022/11/01 08:39:31;;;;;;;16.38;9.25;;;11.70;99.90;;;;;;4983315;28;20034;-89
2022/11/01 08:42:08;;;;;;;16.05;9.32;;;11.80;99.90;;;;;;4987445;28;20041;-89
2022/11/01 08:44:46;;;;;;;16.42;9.07;;;11.80;99.90;;;;;;4984669;28;20121;-89
2022/11/01 08:47:11;;;;;;;;;;;11.90;99.90;;;;;;4985257;28;20050;-90
2022/11/01 08:49:38;;;;;;;16.20;8.98;;;11.90;99.90;;;;;;4985404;28;19917;-89
2022/11/01 08:52:06;;;;;;;14.85;8.75;;;11.90;99.90;;;;;;4987438;28;20046;-89
2022/11/01 08:54:33;;;;;;;15.63;9.70;;;12.00;99.90;;;;;;4980953;28;20034;-89
2022/11/01 08:57:15;;;;;;;;;;;;;;;;;;;;;
2022/11/01 08:59:43;;;;;;;23.40;14.85;;;12.00;99.90;;;;;;4983864;28;20430;-88
2022/11/01 09:02:12;;;;;;;;;;;12.00;99.90;;;;;;4982421;28;20050;-88
2022/11/01 09:05:04;;;;;;;14.98;10.20;;;12.10;99.90;;;;;;4990700;28;19914;-88
2022/11/01 09:07:35;;;;;;;20.67;11.55;;;12.10;99.90;;;;;;4984041;28;20054;-88
2022/11/01 09:10:07;;;;;;;23.13;14.27;;;12.20;99.90;;;;;;4984409;28;20054;-88
2022/11/01 09:12:33;;;;;;;26.42;16.35;;;12.30;99.90;;;;;;4985256;28;20027;-88
2022/11/01 09:15:01;;;;;;;21.30;14.35;;;12.40;99.90;;;;;;4985596;28;21899;-87
2022/11/01 09:17:27;;;;;;;21.85;13.98;;;12.40;99.90;;;;;;4984016;28;20031;-88
2022/11/01 09:19:53;;;;;;;15.95;9.95;;;12.50;99.90;;;;;;5013588;28;20054;-88
2022/11/01 09:22:22;;;;;;;13.82;6.78;;;12.60;99.90;;;;;;4983487;28;20048;-88
2022/11/01 09:24:48;;;;;;;15.52;10.40;;;12.70;99.90;;;;;;4983848;28;20054;-88
2022/11/01 09:27:29;;;;;;;13.27;7.50;;;12.80;99.90;;;;;;4986139;28;20043;-87
2022/11/01 09:30:04;;;;;;;10.65;5.60;;;12.90;99.90;;;;;;4981968;28;20073;-88
2022/11/01 09:32:30;;;;;;;10.05;4.70;;;13.10;99.90;;;;;;4983350;28;20050;-87
2022/11/01 09:34:56;;;;;;;7.07;4.22;;;13.20;99.90;;;;;;5000206;28;20034;-88
2022/11/01 09:37:43;;;;;;;5.93;4.00;;;13.40;99.90;;;;;;4967255;28;20050;-88
2022/11/01 09:40:12;;;;;;;9.60;4.47;;;13.40;99.90;;;;;;4981911;28;20549;-87
2022/11/01 09:42:42;;;;;;;8.48;3.75;;;13.60;99.90;;;;;;4975739;28;20109;-86
2022/11/01 09:45:33;;;;;;;6.05;3.30;;;13.70;99.90;;;;;;4981587;28;20080;-84
2022/11/01 09:48:24;;;;;;;6.30;3.33;;;13.70;99.90;;;;;;4972502;28;20042;-88
2022/11/01 09:50:55;;;;;;;6.22;3.25;;;13.70;99.90;;;;;;4987404;28;20034;-87
2022/11/01 09:56:37;;;;;;;4.60;2.90;;;13.70;99.90;;;;;;4959041;28;20045;-86
2022/11/01 09:59:48;;;;;;;7.72;3.72;;;13.80;99.90;;;;;;4971116;28;20054;-86
2022/11/01 10:03:13;;;;;;;6.70;2.75;;;13.80;99.90;;;;;;4952767;29;20048;-87
2022/11/01 10:06:31;;;;;;;6.22;3.28;;;13.80;99.90;;;;;;4923547;29;20687;-87
2022/11/01 10:13:37;;;;;;;5.97;3.05;;;13.90;99.90;;;;;;4850145;28;20976;-87
2022/11/01 10:16:06;;;;;;;6.75;3.40;;;14.00;99.90;;;;;;4971076;28;20510;-87
2022/11/01 10:19:05;;;;;;;5.82;3.63;;;14.10;99.90;;;;;;4957909;28;20046;-86
2022/11/01 10:21:43;;;;;;;6.00;3.33;;;14.10;99.90;;;;;;4952475;28;20031;-87
2022/11/01 10:24:35;;;;;;;6.18;3.40;;;14.20;99.90;;;;;;4964918;28;20038;-86
2022/11/01 10:27:31;;;;;;;5.10;3.70;;;14.30;99.90;;;;;;4964232;28;20035;-87
2022/11/01 10:30:05;;;;;;;8.02;3.63;;;14.40;99.90;;;;;;4967016;28;20102;-87
2022/11/01 10:33:01;;;;;;;5.22;4.00;;;14.50;99.90;;;;;;4967241;28;20111;-86
2022/11/01 10:35:55;;;;;;;8.52;3.58;;;14.50;99.90;;;;;;4971401;28;20066;-86
2022/11/01 10:39:19;;;;;;;5.75;3.17;;;14.70;99.90;;;;;;4968374;28;20379;-87
2022/11/01 10:41:50;;;;;;;6.07;3.70;;;14.80;99.90;;;;;;4964644;28;20207;-86
2022/11/01 10:44:24;;;;;;;7.43;3.42;;;14.90;99.90;;;;;;4962010;28;20044;-86
2022/11/01 10:47:13;;;;;;;5.82;3.20;;;15.00;99.90;;;;;;4968671;28;20037;-86
2022/11/01 10:49:59;;;;;;;4.95;3.33;;;15.10;99.90;;;;;;4968459;28;20043;-86
2022/11/01 10:52:34;;;;;;;4.88;3.35;;;15.10;99.90;;;;;;4957200;28;20172;-87
2022/11/01 10:55:04;;;;;;;5.32;3.45;;;15.30;99.90;;;;;;4960093;28;20060;-86
2022/11/01 10:57:48;;;;;;;4.45;3.00;;;15.30;99.90;;;;;;4973305;28;20032;-87
2022/11/01 11:00:43;;;;;;;5.75;3.47;;;15.40;99.90;;;;;;4964130;28;20038;-86
2022/11/01 11:03:45;;;;;;;6.47;3.15;;;15.40;99.90;;;;;;4964383;28;20047;-87
2022/11/01 11:08:59;;;;;;;4.57;2.60;;;15.50;99.90;;;;;;4974618;28;20065;-85
2022/11/01 11:12:02;;;;;;;3.38;2.05;;;15.70;99.90;;;;;;4967673;28;20046;-86
2022/11/01 11:14:31;;;;;;;6.00;2.15;;;15.70;99.90;;;;;;4958736;28;20054;-87
2022/11/01 11:17:18;;;;;;;5.20;3.13;;;15.70;99.90;;;;;;4968961;28;20312;-86
2022/11/01 11:19:47;;;;;;;3.88;2.03;;;15.70;99.90;;;;;;4958099;28;20050;-87
2022/11/01 11:22:13;;;;;;;4.65;2.55;;;15.70;99.90;;;;;;4960840;28;20028;-86
2022/11/01 11:24:45;;;;;;;6.22;2.78;;;15.70;99.90;;;;;;4961172;28;20050;-86
2022/11/01 11:27:24;;;;;;;5.07;2.38;;;15.60;99.90;;;;;;4964147;28;20048;-86
2022/11/01 11:30:22;;;;;;;3.70;2.67;;;15.70;99.90;;;;;;4961412;28;20094;-86
2022/11/01 11:32:58;;;;;;;3.72;2.15;;;15.70;99.90;;;;;;4969989;28;20043;-85
2022/11/01 11:35:27;;;;;;;2.47;1.98;;;15.80;99.90;;;;;;4977559;28;20093;-86
2022/11/01 11:37:57;;;;;;;4.13;2.03;;;15.80;99.90;;;;;;4961018;28;20081;-87
2022/11/01 11:40:47;;;;;;;3.38;2.17;;;15.80;99.90;;;;;;4956067;28;20055;-85
2022/11/01 11:43:32;;;;;;;2.67;2.28;;;15.80;99.90;;;;;;4963535;28;20073;-85
2022/11/01 11:46:20;;;;;;;3.30;2.20;;;15.80;99.90;;;;;;4958647;28;20066;-86
2022/11/01 11:49:05;;;;;;;;;;;;;;;;;;;;;
2022/11/01 11:51:40;;;;;;;3.60;1.65;;;15.90;99.90;;;;;;4957685;28;20602;-86
2022/11/01 11:54:36;;;;;;;3.92;1.73;;;15.90;99.90;;;;;;4959725;28;20059;-86
2022/11/01 11:57:44;;;;;;;;;;;;;;;;;;;;;
2022/11/01 12:00:45;;;;;;;2.45;1.67;;;15.90;99.90;;;;;;4952496;28;20146;-87
2022/11/01 12:03:19;;;;;;;1.90;1.60;;;15.90;99.90;;;;;;4974230;28;20051;-85
2022/11/01 12:06:07;;;;;;;2.38;2.00;;;15.90;99.90;;;;;;4980479;28;20031;-85
2022/11/01 12:08:58;;;;;;;2.10;1.83;;;15.90;99.90;;;;;;4979075;28;20442;-86
2022/11/01 12:11:46;;;;;;;0.52;0.52;;;15.90;99.90;;;;;;5008594;28;20509;-85
2022/11/01 12:14:33;;;;;;;1.60;1.50;;;15.90;99.90;;;;;;4970422;28;20030;-85
2022/11/01 12:16:58;;;;;;;3.03;1.65;;;15.90;99.90;;;;;;5004891;28;20438;-85
2022/11/01 12:19:33;;;;;;;5.82;1.40;;;15.80;99.90;;;;;;5005535;28;20030;-85
2022/11/01 12:22:05;;;;;;;2.08;1.40;;;15.90;99.90;;;;;;5004284;28;20046;-85
2022/11/01 12:25:04;;;;;;;3.67;1.45;;;15.90;99.90;;;;;;5002263;28;20611;-84
2022/11/01 12:27:34;;;;;;;3.25;1.73;;;15.90;99.90;;;;;;5010565;28;20109;-85
2022/11/01 12:30:23;;;;;;;4.65;1.55;;;15.90;99.90;;;;;;5023385;28;20029;-85
2022/11/01 12:33:33;;;;;;;2.80;1.70;;;16.00;99.90;;;;;;4996717;28;20055;-84
2022/11/01 12:36:02;;;;;;;3.10;1.77;;;16.00;99.90;;;;;;5002168;28;20045;-86
2022/11/01 12:38:51;;;;;;;3.25;1.80;;;16.00;99.90;;;;;;5013521;28;20038;-85
2022/11/01 12:41:44;;;;;;;1.90;1.70;;;16.00;99.90;;;;;;5006513;28;20042;-87
2022/11/01 12:44:45;;;;;;;2.70;2.00;;;16.00;99.90;;;;;;4998729;28;20034;-86
2022/11/01 12:47:30;;;;;;;2.15;1.63;;;16.10;99.90;;;;;;4986174;28;20045;-85
2022/11/01 12:50:04;;;;;;;2.80;1.50;;;16.10;99.90;;;;;;5000527;28;20041;-85
2022/11/01 12:52:45;;;;;;;2.58;1.60;;;16.10;99.90;;;;;;5002708;28;20085;-86
2022/11/01 12:55:11;;;;;;;2.85;1.80;;;16.20;99.90;;;;;;5003317;28;20874;-87
2022/11/01 12:58:18;;;;;;;4.38;1.88;;;16.20;99.90;;;;;;5007515;28;20038;-84
2022/11/01 13:01:24;;;;;;;;;;;16.30;99.90;;;;;;4980532;28;20073;-86
2022/11/01 13:04:39;;;;;;;6.75;1.70;;;16.30;99.90;;;;;;5006020;28;20625;-86
2022/11/01 13:07:26;;;;;;;1.67;1.52;;;16.30;99.90;;;;;;4929439;29;20043;-89
2022/11/01 13:10:32;;;;;;;3.07;1.73;;;16.30;99.90;;;;;;4945926;28;20043;-86
2022/11/01 13:13:16;;;;;;;3.60;1.70;;;16.40;99.90;;;;;;4974287;28;20105;-87
2022/11/01 13:16:44;;;;;;;2.08;1.90;;;16.40;99.90;;;;;;5001730;28;20035;-86
2022/11/01 13:19:38;;;;;;;3.10;2.00;;;16.40;99.90;;;;;;4931159;29;20072;-87
2022/11/01 13:22:14;;;;;;;1.52;1.35;;;16.40;99.90;;;;;;4983362;28;20047;-86
2022/11/01 13:24:58;;;;;;;1.42;1.33;;;16.40;99.90;;;;;;4981859;28;20038;-85
2022/11/01 13:28:14;;;;;;;1.85;1.42;;;16.40;99.90;;;;;;5003014;28;20026;-85
2022/11/01 13:31:11;;;;;;;1.50;1.30;;;16.40;99.90;;;;;;4983563;28;20093;-85
2022/11/01 13:33:50;;;;;;;2.93;1.40;;;16.50;99.90;;;;;;4969036;28;20053;-85
2022/11/01 13:39:54;;;;;;;4.90;1.23;;;16.40;99.90;;;;;;4994357;28;20046;-85
2022/11/01 13:42:36;;;;;;;1.23;0.80;;;16.40;99.90;;;;;;5003664;28;20038;-85
2022/11/01 13:45:44;;;;;;;1.67;1.58;;;16.40;99.90;;;;;;5007897;28;20050;-85
2022/11/01 13:51:56;;;;;;;2.47;1.50;;;16.30;99.90;;;;;;4992608;28;20036;-86
2022/11/01 13:54:41;;;;;;;1.65;1.25;;;16.40;99.90;;;;;;4994728;28;20030;-85
2022/11/01 13:57:10;;;;;;;3.03;1.40;;;16.30;99.90;;;;;;4980058;28;20031;-85
2022/11/01 14:00:36;;;;;;;1.50;1.40;;;16.30;99.90;;;;;;5000126;28;20065;-86
2022/11/01 14:06:35;;;;;;;2.20;1.48;;;16.40;99.90;;;;;;5023185;28;20029;-87
2022/11/01 14:09:47;;;;;;;2.60;1.70;;;16.40;99.90;;;;;;5018623;28;20040;-84
2022/11/01 14:12:40;;;;;;;3.38;1.75;;;16.40;99.90;;;;;;5013121;28;20114;-86
2022/11/01 14:15:19;;;;;;;1.65;1.50;;;16.30;99.90;;;;;;5016627;28;20498;-87
2022/11/01 14:18:26;;;;;;;2.10;1.52;;;16.20;99.90;;;;;;5022577;28;20034;-86